La Port Police — WDG4647 — position and weather

sailwx.info

Track history (hours):
 
Tides and Currents Weather Stations Pressure Air Temp Water Temp Dewpoint Dewpoint Depression Visibility Wind Speed Wind Dir Waves Ship Positions

La Port Police

Owner: LA Port Police, Los Angeles, CA. More information available from US FCC via Universal Licensing System.

Last reported at 2018-Aug-15 21:16 UTC. Time now 2018-Aug-18 00:46 UTC.
Position N 33°44' W 118°16'.

Length 20 m.

Type: Ship. MMSI: 367538710.

Date/timePositionNaut miles runAvg speedWind from/ knotsBaromVisibWave heightAir tempDewpointWater temp
2018-Aug-15 21:16N 33°44' W 118°16'1 4.2
2018-Aug-15 21:00N 33°43' W 118°16'3 0.4
2018-Aug-15 14:51N 33°41' W 118°17'3 9.7
2018-Aug-15 14:30N 33°44' W 118°17'0 0.9
2018-Aug-15 13:58N 33°44' W 118°16'0 0.1
2018-Aug-15 13:30N 33°44' W 118°16'0 0.0
2018-Aug-14 20:32N 33°44' W 118°16'0 2.0
2018-Aug-14 20:30N 33°44' W 118°16'18 3.4
2018-Aug-14 15:10N 33°28' W 118°27'719.2
2018-Aug-14 14:48N 33°34' W 118°22'619.4
2018-Aug-14 14:30N 33°39' W 118°18'611.0
2018-Aug-14 14:00N 33°44' W 118°16'0 0.0
2018-Aug-14 13:30N 33°44' W 118°16'0 0.1
2018-Aug-14 13:00N 33°44' W 118°16'0 0.0
2018-Aug-13 20:45N 33°44' W 118°16'2 8.2
2018-Aug-13 20:30N 33°42' W 118°15'10 1.7
2018-Aug-13 14:44N 33°35' W 118°22'418.7
2018-Aug-13 14:30N 33°38' W 118°19'713.3
2018-Aug-13 14:00N 33°44' W 118°16'0 0.2
2018-Aug-13 13:30N 33°44' W 118°16'0 0.0
2018-Aug-13 13:00N 33°44' W 118°16'0 0.0
2018-Aug-11 18:54N 33°44' W 118°16'1 1.5
2018-Aug-11 18:30N 33°44' W 118°16'4 7.0
2018-Aug-11 18:00N 33°41' W 118°14'3 5.7
2018-Aug-11 17:31N 33°38' W 118°13'611.6
2018-Aug-11 17:00N 33°44' W 118°10'0 0.6
2018-Aug-11 16:30N 33°44' W 118°10'0 0.7
2018-Aug-11 15:59N 33°44' W 118°10'5 9.8
2018-Aug-11 15:30N 33°43' W 118°16'0 0.4
2018-Aug-11 15:00N 33°44' W 118°16'1 1.2
2018-Aug-11 14:30N 33°44' W 118°16'0 0.0
2018-Aug-11 14:00N 33°44' W 118°16'  
Track history (hours):
 
Tides and Currents Weather Stations Pressure Air Temp Water Temp Dewpoint Dewpoint Depression Visibility Wind Speed Wind Dir Waves Ship Positions

La Port Police

Owner: LA Port Police, Los Angeles, CA. More information available from US FCC via Universal Licensing System.

Last reported at 2018-Aug-15 21:16 UTC. Time now 2018-Aug-18 00:46 UTC.
Position N 33°44' W 118°16'.

Length 20 m.

Type: Ship. MMSI: 367538710.

Date/timePositionNaut miles runAvg speedWind from/ knotsBaromVisibWave heightAir tempDewpointWater temp
2018-Aug-15 21:16N 33°44' W 118°16'1 4.2
2018-Aug-15 21:00N 33°43' W 118°16'3 0.4
2018-Aug-15 14:51N 33°41' W 118°17'3 9.7
2018-Aug-15 14:30N 33°44' W 118°17'0 0.9
2018-Aug-15 13:58N 33°44' W 118°16'0 0.1
2018-Aug-15 13:30N 33°44' W 118°16'0 0.0
2018-Aug-14 20:32N 33°44' W 118°16'0 2.0
2018-Aug-14 20:30N 33°44' W 118°16'18 3.4
2018-Aug-14 15:10N 33°28' W 118°27'719.2
2018-Aug-14 14:48N 33°34' W 118°22'619.4
2018-Aug-14 14:30N 33°39' W 118°18'611.0
2018-Aug-14 14:00N 33°44' W 118°16'0 0.0
2018-Aug-14 13:30N 33°44' W 118°16'0 0.1
2018-Aug-14 13:00N 33°44' W 118°16'0 0.0
2018-Aug-13 20:45N 33°44' W 118°16'2 8.2
2018-Aug-13 20:30N 33°42' W 118°15'10 1.7
2018-Aug-13 14:44N 33°35' W 118°22'418.7
2018-Aug-13 14:30N 33°38' W 118°19'713.3
2018-Aug-13 14:00N 33°44' W 118°16'0 0.2
2018-Aug-13 13:30N 33°44' W 118°16'0 0.0
2018-Aug-13 13:00N 33°44' W 118°16'0 0.0
2018-Aug-11 18:54N 33°44' W 118°16'1 1.5
2018-Aug-11 18:30N 33°44' W 118°16'4 7.0
2018-Aug-11 18:00N 33°41' W 118°14'3 5.7
2018-Aug-11 17:31N 33°38' W 118°13'611.6
2018-Aug-11 17:00N 33°44' W 118°10'0 0.6
2018-Aug-11 16:30N 33°44' W 118°10'0 0.7
2018-Aug-11 15:59N 33°44' W 118°10'5 9.8
2018-Aug-11 15:30N 33°43' W 118°16'0 0.4
2018-Aug-11 15:00N 33°44' W 118°16'1 1.2
2018-Aug-11 14:30N 33°44' W 118°16'0 0.0
2018-Aug-11 14:00N 33°44' W 118°16'  

Dump ship's entire track history